Time;durP1;ratioP1;P1;durP2;ratioP2;P2;SDS_P1;SDS_P2;PMS_P1;PMS_P2;Temp;Humidity;BMP_temperature;BMP_pressure;BME280_temperature;BME280_humidity;BME280_pressure;Samples;Min_cycle;Max_cycle;Signal;HPM_P1;HPM_P2
2022/06/20 00:01:37;;;;;;;6.70;3.90;;;23.40;98.00;;;;;;5012484;28;20491;-72
2022/06/20 00:04:05;;;;;;;21.37;5.30;;;23.30;98.00;;;;;;5011895;28;20456;-71
2022/06/20 00:06:32;;;;;;;5.93;3.33;;;23.50;98.00;;;;;;5012573;28;20475;-72
2022/06/20 00:09:02;;;;;;;7.07;4.10;;;23.50;98.00;;;;;;5012257;28;20451;-73
2022/06/20 00:11:35;;;;;;;9.83;4.77;;;23.20;98.00;;;;;;5011579;28;20558;-72
2022/06/20 00:14:04;;;;;;;6.33;4.70;;;23.00;98.00;;;;;;4995547;28;20466;-72
2022/06/20 00:16:33;;;;;;;9.90;4.47;;;23.00;98.00;;;;;;5012499;28;20455;-74
2022/06/20 00:19:01;;;;;;;6.70;4.07;;;22.90;98.00;;;;;;5012366;28;20946;-73
2022/06/20 00:21:29;;;;;;;7.00;3.93;;;22.80;98.00;;;;;;5012786;28;20483;-72
2022/06/20 00:23:56;;;;;;;5.73;3.50;;;22.80;98.00;;;;;;5012216;28;20460;-74
2022/06/20 00:26:23;;;;;;;7.27;3.77;;;22.80;98.00;;;;;;5012390;28;20460;-72
2022/06/20 00:28:50;;;;;;;5.70;3.87;;;22.80;98.00;;;;;;5011785;28;20466;-72
2022/06/20 00:31:19;;;;;;;7.70;4.50;;;22.70;98.00;;;;;;5012098;28;20478;-72
2022/06/20 00:33:47;;;;;;;6.50;3.40;;;22.80;98.00;;;;;;5011542;28;20969;-72
2022/06/20 00:36:14;;;;;;;10.43;4.20;;;22.90;98.00;;;;;;5011736;28;20966;-72
2022/06/20 00:38:42;;;;;;;7.90;4.33;;;23.00;98.00;;;;;;5012183;28;20479;-74
2022/06/20 00:41:15;;;;;;;8.40;3.43;;;22.90;98.00;;;;;;5011870;28;20483;-73
2022/06/20 00:43:46;;;;;;;7.90;4.37;;;22.90;98.00;;;;;;5012169;28;20819;-73
2022/06/20 00:46:32;;;;;;;8.97;4.23;;;22.90;98.00;;;;;;5011904;28;20495;-71
2022/06/20 00:49:06;;;;;;;9.93;4.13;;;22.90;98.00;;;;;;5011863;28;20463;-72
2022/06/20 00:51:37;;;;;;;7.30;4.37;;;22.90;98.00;;;;;;5012107;28;20946;-73
2022/06/20 00:54:14;;;;;;;9.60;3.90;;;23.00;98.00;;;;;;5011859;28;20966;-72
2022/06/20 00:56:50;;;;;;;12.17;4.40;;;22.90;98.00;;;;;;5011967;28;20471;-72
2022/06/20 00:59:23;;;;;;;6.37;3.67;;;22.90;98.00;;;;;;5011760;28;20463;-72
2022/06/20 01:01:52;;;;;;;6.23;3.73;;;22.90;98.00;;;;;;5011971;28;20497;-72
2022/06/20 01:04:24;;;;;;;9.20;4.57;;;22.90;98.00;;;;;;5011873;28;20463;-72
2022/06/20 01:06:56;;;;;;;8.80;3.90;;;23.00;98.00;;;;;;5011866;28;20455;-72
2022/06/20 01:09:27;;;;;;;8.10;3.53;;;23.00;98.00;;;;;;5011975;28;20463;-72
2022/06/20 01:11:56;;;;;;;7.67;4.33;;;23.20;98.00;;;;;;5012098;28;20790;-72
2022/06/20 01:14:27;;;;;;;7.93;4.00;;;23.30;98.00;;;;;;4994541;28;20463;-72
2022/06/20 01:16:58;;;;;;;10.80;4.37;;;23.30;98.00;;;;;;5012067;28;20490;-71
2022/06/20 01:19:45;;;;;;;6.00;3.97;;;23.40;98.00;;;;;;5011950;28;20853;-71
2022/06/20 01:22:25;;;;;;;9.90;4.23;;;23.60;98.00;;;;;;5003322;28;20487;-72
2022/06/20 01:25:14;;;;;;;7.87;4.07;;;23.50;98.00;;;;;;5015494;28;20517;-72
2022/06/20 01:27:46;;;;;;;6.03;3.70;;;23.20;98.00;;;;;;4999054;28;20468;-72
2022/06/20 01:30:14;;;;;;;5.63;4.10;;;23.10;98.00;;;;;;5015368;28;20814;-72
2022/06/20 01:32:43;;;;;;;9.40;3.83;;;23.10;98.00;;;;;;5015007;28;20535;-72
2022/06/20 01:37:23;;;;;;;6.33;3.60;;;23.00;98.00;;;;;;5014966;28;20462;-72
2022/06/20 01:38:04;;;;;;;6.07;3.53;;;22.90;98.00;;;;;;5014612;28;20530;-73
2022/06/20 01:40:32;;;;;;;6.30;4.13;;;22.70;98.00;;;;;;5014922;28;20459;-72
2022/06/20 01:42:59;;;;;;;9.97;3.57;;;22.70;98.00;;;;;;5014903;28;20466;-72
2022/06/20 01:48:16;;;;;;;6.60;3.77;;;22.60;98.00;;;;;;5014829;28;20465;-72
2022/06/20 01:50:47;;;;;;;6.23;3.60;;;22.60;98.00;;;;;;5015144;28;20463;-72
2022/06/20 01:53:18;;;;;;;10.40;4.20;;;22.60;98.00;;;;;;5014843;28;20470;-73
2022/06/20 01:55:48;;;;;;;6.77;4.20;;;22.60;98.00;;;;;;5014983;28;20467;-72
2022/06/20 01:58:23;;;;;;;7.13;4.00;;;22.70;98.00;;;;;;5014775;28;20977;-72
2022/06/20 02:00:50;;;;;;;5.87;3.80;;;22.80;98.00;;;;;;5014708;28;20490;-72
2022/06/20 02:03:21;;;;;;;6.23;3.90;;;22.60;98.00;;;;;;5014536;28;20464;-73
2022/06/20 02:05:53;;;;;;;7.60;3.80;;;22.50;98.00;;;;;;5014839;28;20463;-73
2022/06/20 02:08:22;;;;;;;6.87;3.53;;;22.50;98.00;;;;;;5014642;28;20470;-73
2022/06/20 02:10:55;;;;;;;6.00;3.90;;;22.50;98.00;;;;;;4997281;28;20965;-73
2022/06/20 02:13:27;;;;;;;7.20;4.00;;;22.70;98.00;;;;;;5014487;28;20538;-73
2022/06/20 02:16:00;;;;;;;6.80;3.27;;;22.90;98.00;;;;;;5014531;28;20472;-72
2022/06/20 02:18:30;;;;;;;9.63;4.20;;;22.80;98.00;;;;;;5014507;28;20466;-73
2022/06/20 02:21:01;;;;;;;7.43;3.50;;;22.80;98.00;;;;;;5014407;28;20479;-72
2022/06/20 02:23:36;;;;;;;7.83;4.17;;;22.70;98.00;;;;;;5014481;28;20452;-72
2022/06/20 02:26:05;;;;;;;4.80;3.13;;;22.70;98.00;;;;;;5014512;28;20470;-72
2022/06/20 02:28:39;;;;;;;5.93;3.50;;;22.80;98.00;;;;;;5013839;28;20459;-72
2022/06/20 02:31:08;;;;;;;4.03;2.73;;;22.80;98.00;;;;;;5014137;28;20463;-71
2022/06/20 02:33:36;;;;;;;6.00;3.57;;;22.80;98.00;;;;;;5013263;28;20459;-72
2022/06/20 02:36:07;;;;;;;7.17;4.47;;;22.80;98.00;;;;;;5013551;28;20464;-73
2022/06/20 02:38:34;;;;;;;6.17;4.00;;;22.80;98.00;;;;;;5013870;28;20464;-73
2022/06/20 02:41:05;;;;;;;5.47;3.67;;;22.70;98.00;;;;;;5013725;28;20514;-72
2022/06/20 02:43:39;;;;;;;5.97;3.23;;;22.50;98.00;;;;;;4996999;28;20950;-72
2022/06/20 02:46:15;;;;;;;7.97;3.80;;;22.60;98.00;;;;;;5013609;28;20455;-72
2022/06/20 02:48:45;;;;;;;6.30;4.10;;;22.70;98.00;;;;;;4996624;28;20467;-73
2022/06/20 02:51:16;;;;;;;5.47;3.50;;;22.60;98.00;;;;;;5013647;28;20491;-72
2022/06/20 02:53:47;;;;;;;6.80;4.07;;;22.70;98.00;;;;;;5013734;28;20463;-72
2022/06/20 02:56:19;;;;;;;6.50;3.93;;;22.50;98.00;;;;;;5013503;28;20459;-73
2022/06/20 02:58:52;;;;;;;7.53;3.90;;;22.60;98.00;;;;;;4996716;28;20456;-72
2022/06/20 03:01:25;;;;;;;6.17;3.20;;;22.80;98.00;;;;;;5013455;28;21012;-73
2022/06/20 03:03:57;;;;;;;11.80;4.60;;;22.90;98.00;;;;;;5013464;28;20474;-72
2022/06/20 03:06:27;;;;;;;4.40;3.07;;;22.90;98.00;;;;;;5013655;28;20459;-72
2022/06/20 03:08:56;;;;;;;5.93;3.70;;;23.00;98.00;;;;;;5013387;28;20482;-72
2022/06/20 03:11:25;;;;;;;7.37;3.80;;;22.80;98.00;;;;;;5013616;28;20460;-72
2022/06/20 03:13:55;;;;;;;8.83;3.87;;;22.70;98.00;;;;;;4996053;28;20956;-72
2022/06/20 03:16:23;;;;;;;6.93;4.00;;;22.50;98.00;;;;;;5013342;28;20514;-73
2022/06/20 03:18:51;;;;;;;6.20;3.40;;;22.30;98.00;;;;;;5013265;28;20460;-73
2022/06/20 03:21:20;;;;;;;7.10;3.63;;;22.20;98.00;;;;;;5012705;28;20483;-72
2022/06/20 03:23:47;;;;;;;7.63;4.07;;;22.30;98.00;;;;;;5013266;28;20976;-71
2022/06/20 03:26:25;;;;;;;5.67;2.80;;;22.20;98.00;;;;;;5013027;28;20462;-72
2022/06/20 03:28:54;;;;;;;6.00;3.50;;;22.30;98.00;;;;;;5012957;28;20482;-72
2022/06/20 03:31:22;;;;;;;7.20;4.00;;;22.40;98.00;;;;;;5013148;28;20474;-72
2022/06/20 03:33:49;;;;;;;7.37;3.97;;;22.40;98.00;;;;;;5012970;28;20455;-72
2022/06/20 03:36:22;;;;;;;4.60;3.13;;;22.30;98.00;;;;;;5012688;28;20805;-72
2022/06/20 03:38:50;;;;;;;5.47;3.40;;;22.20;98.00;;;;;;5013235;28;20474;-71
2022/06/20 03:41:22;;;;;;;3.93;2.73;;;22.10;98.00;;;;;;5012894;28;20468;-72
2022/06/20 03:43:55;;;;;;;4.67;2.73;;;22.10;98.00;;;;;;5012799;28;20513;-72
2022/06/20 03:46:27;;;;;;;5.23;2.83;;;22.30;98.00;;;;;;5011684;28;20470;-72
2022/06/20 03:49:02;;;;;;;5.27;3.20;;;22.40;98.00;;;;;;5012653;28;20464;-73
2022/06/20 03:51:35;;;;;;;10.40;3.30;;;22.50;98.00;;;;;;5012560;28;20534;-72
2022/06/20 03:54:09;;;;;;;6.80;3.50;;;22.30;98.00;;;;;;5012409;28;20471;-72
2022/06/20 03:56:42;;;;;;;6.83;3.40;;;22.20;98.00;;;;;;5012723;28;20462;-73
2022/06/20 03:59:17;;;;;;;5.60;2.77;;;22.00;98.00;;;;;;4995449;28;21253;-72
2022/06/20 04:01:50;;;;;;;5.37;3.30;;;21.90;98.00;;;;;;5012649;28;20487;-73
2022/06/20 04:04:22;;;;;;;5.07;2.77;;;21.70;98.00;;;;;;5012393;28;20479;-72
2022/06/20 04:06:57;;;;;;;4.70;2.90;;;21.70;98.00;;;;;;5012686;28;20460;-72
2022/06/20 04:12:21;;;;;;;5.07;2.83;;;21.90;98.00;;;;;;5012643;28;20916;-71
2022/06/20 04:14:57;;;;;;;3.27;2.70;;;21.90;98.00;;;;;;5012444;28;20462;-71
2022/06/20 04:20:28;;;;;;;4.83;3.03;;;21.90;98.00;;;;;;5001798;28;20463;-71
2022/06/20 04:22:57;;;;;;;3.40;2.73;;;21.90;98.00;;;;;;5012186;28;20487;-72
2022/06/20 04:25:30;;;;;;;3.93;2.80;;;22.00;98.00;;;;;;5012623;28;21004;-72
2022/06/20 04:28:06;;;;;;;7.77;3.00;;;21.90;98.00;;;;;;5012252;28;20471;-72
2022/06/20 04:30:42;;;;;;;4.90;3.50;;;21.90;98.00;;;;;;5012303;28;20467;-72
2022/06/20 04:33:16;;;;;;;5.83;3.40;;;21.90;98.00;;;;;;5011888;28;20459;-72
2022/06/20 04:35:55;;;;;;;4.53;2.97;;;22.10;98.00;;;;;;5012272;28;20474;-73
2022/06/20 04:38:25;;;;;;;7.50;4.00;;;22.10;98.00;;;;;;5012010;28;20472;-72
2022/06/20 04:40:59;;;;;;;6.10;3.63;;;22.10;98.00;;;;;;5012490;28;20463;-71
2022/06/20 04:43:33;;;;;;;3.00;2.63;;;22.20;98.00;;;;;;5011870;28;20968;-73
2022/06/20 04:46:06;;;;;;;4.33;3.00;;;22.10;98.00;;;;;;5012239;28;20456;-72
2022/06/20 04:48:34;;;;;;;6.60;4.40;;;22.00;98.00;;;;;;5011965;28;20459;-72
2022/06/20 04:51:04;;;;;;;6.17;3.70;;;21.90;98.00;;;;;;5011867;28;20468;-72
2022/06/20 04:53:36;;;;;;;5.70;2.97;;;21.90;98.00;;;;;;5012144;28;20455;-72
2022/06/20 04:56:06;;;;;;;7.00;3.87;;;21.90;98.00;;;;;;5011955;28;20843;-71
2022/06/20 04:58:40;;;;;;;5.83;3.00;;;21.90;98.00;;;;;;5014677;28;20514;-74
2022/06/20 05:01:09;;;;;;;4.93;3.30;;;22.00;98.00;;;;;;5015791;28;20481;-72
2022/06/20 05:03:41;;;;;;;4.50;2.87;;;22.00;98.00;;;;;;5015565;28;20491;-72
2022/06/20 05:06:14;;;;;;;3.87;2.73;;;22.10;98.00;;;;;;4998503;28;20455;-73
2022/06/20 05:08:47;;;;;;;4.50;2.70;;;22.00;98.00;;;;;;4998580;28;20455;-71
2022/06/20 05:11:21;;;;;;;5.37;3.37;;;22.00;98.00;;;;;;5015869;28;20455;-73
2022/06/20 05:13:54;;;;;;;5.50;2.93;;;21.70;98.00;;;;;;5015718;28;20452;-72
2022/06/20 05:16:28;;;;;;;8.57;3.20;;;21.60;98.00;;;;;;5015587;28;20478;-71
2022/06/20 05:18:57;;;;;;;5.43;3.43;;;21.70;98.00;;;;;;5015579;28;20455;-72
2022/06/20 05:21:32;;;;;;;6.50;3.80;;;21.60;98.00;;;;;;5015542;28;20447;-72
2022/06/20 05:24:04;;;;;;;8.50;3.60;;;21.50;98.00;;;;;;4998416;28;20463;-71
2022/06/20 05:26:35;;;;;;;6.60;3.90;;;21.60;98.00;;;;;;5015543;28;20467;-73
2022/06/20 05:29:07;;;;;;;6.90;3.33;;;21.60;98.00;;;;;;5015299;28;20463;-72
2022/06/20 05:31:38;;;;;;;5.03;3.33;;;21.60;98.00;;;;;;5015256;28;20459;-72
2022/06/20 05:34:15;;;;;;;4.43;3.10;;;21.70;98.00;;;;;;5015602;28;20460;-65
2022/06/20 05:36:53;;;;;;;5.83;3.57;;;21.90;98.00;;;;;;5015247;28;20463;-68
2022/06/20 05:39:24;;;;;;;4.73;3.30;;;21.80;98.00;;;;;;5014968;28;20459;-68
2022/06/20 05:41:51;;;;;;;5.27;3.70;;;21.60;98.00;;;;;;5015065;28;20474;-68
2022/06/20 05:44:19;;;;;;;5.50;3.10;;;21.60;98.00;;;;;;5014752;28;20478;-68
2022/06/20 05:46:52;;;;;;;4.20;2.80;;;21.70;98.00;;;;;;5014744;28;20451;-67
2022/06/20 05:49:29;;;;;;;4.13;2.63;;;21.70;98.00;;;;;;5014520;28;20456;-65
2022/06/20 05:51:58;;;;;;;9.73;3.60;;;21.90;98.00;;;;;;5014638;28;20834;-69
2022/06/20 05:54:30;;;;;;;6.03;3.20;;;22.10;98.00;;;;;;5014413;28;20466;-68
2022/06/20 05:57:01;;;;;;;4.50;3.20;;;22.30;98.00;;;;;;5014929;28;20454;-68
2022/06/20 05:59:39;;;;;;;9.77;3.33;;;22.70;98.00;;;;;;5014716;28;20539;-68
2022/06/20 06:02:23;;;;;;;7.30;3.77;;;23.10;98.00;;;;;;5014736;28;20495;-68
2022/06/20 06:05:00;;;;;;;7.10;3.70;;;23.30;98.00;;;;;;5014504;28;20464;-68
2022/06/20 06:07:32;;;;;;;4.47;3.17;;;23.60;98.00;;;;;;4997226;28;20460;-68
2022/06/20 06:10:02;;;;;;;7.10;3.87;;;23.70;98.00;;;;;;5013409;28;20486;-68
2022/06/20 06:12:36;;;;;;;5.60;3.20;;;23.80;98.00;;;;;;5014615;28;20798;-67
2022/06/20 06:15:12;;;;;;;6.70;3.50;;;23.80;98.00;;;;;;5014394;28;20868;-67
2022/06/20 06:17:44;;;;;;;7.70;3.73;;;23.60;98.00;;;;;;4997672;28;20490;-68
2022/06/20 06:20:15;;;;;;;8.40;4.53;;;23.50;98.00;;;;;;5014340;28;20472;-69
2022/06/20 06:22:45;;;;;;;7.10;3.47;;;23.60;98.00;;;;;;5014159;28;20479;-68
2022/06/20 06:25:24;;;;;;;6.70;3.60;;;23.90;98.00;;;;;;5014602;28;20510;-67
2022/06/20 06:27:56;;;;;;;5.83;3.80;;;24.10;98.00;;;;;;4997582;28;20477;-68
2022/06/20 06:30:29;;;;;;;10.00;3.97;;;24.20;98.00;;;;;;5014275;28;20456;-67
2022/06/20 06:33:02;;;;;;;7.47;4.00;;;24.30;98.00;;;;;;5013861;28;20471;-68
2022/06/20 06:35:40;;;;;;;6.80;3.53;;;24.10;98.00;;;;;;5014121;28;21099;-68
2022/06/20 06:38:13;;;;;;;12.80;3.87;;;23.80;98.00;;;;;;5013281;28;20471;-67
2022/06/20 06:40:47;;;;;;;8.03;3.87;;;23.90;98.00;;;;;;4996017;28;20456;-67
2022/06/20 06:43:18;;;;;;;6.50;3.60;;;23.70;98.00;;;;;;5013625;28;20495;-68
2022/06/20 06:45:47;;;;;;;7.23;4.00;;;23.70;98.00;;;;;;5013843;28;20452;-68
2022/06/20 06:48:20;;;;;;;6.40;4.07;;;23.60;98.00;;;;;;4996222;28;20989;-67
2022/06/20 06:50:51;;;;;;;6.57;4.27;;;23.40;98.00;;;;;;5012962;28;21008;-69
2022/06/20 06:53:25;;;;;;;7.33;3.60;;;23.50;98.00;;;;;;5013840;28;20460;-68
2022/06/20 06:55:57;;;;;;;5.57;3.77;;;23.50;98.00;;;;;;4996288;28;20483;-67
2022/06/20 06:58:30;;;;;;;6.93;3.50;;;23.60;98.00;;;;;;5013180;28;20455;-68
2022/06/20 07:01:06;;;;;;;8.30;3.83;;;23.50;98.00;;;;;;5012822;28;20559;-66
2022/06/20 07:03:40;;;;;;;8.53;4.07;;;23.70;98.00;;;;;;5012708;28;20874;-68
2022/06/20 07:06:14;;;;;;;9.00;3.90;;;23.80;98.00;;;;;;4995330;28;21020;-66
2022/06/20 07:08:50;;;;;;;7.37;4.30;;;23.80;98.00;;;;;;5012754;28;20459;-66
2022/06/20 07:11:22;;;;;;;4.90;3.40;;;24.00;98.00;;;;;;5012729;28;20455;-67
2022/06/20 07:13:58;;;;;;;5.23;3.30;;;24.10;98.00;;;;;;5012815;28;20945;-67
2022/06/20 07:16:37;;;;;;;7.23;5.00;;;24.20;98.00;;;;;;5012949;28;20890;-67
2022/06/20 07:19:07;;;;;;;7.07;4.13;;;24.30;98.00;;;;;;5012465;28;20506;-67
2022/06/20 07:21:35;;;;;;;7.87;4.10;;;24.30;98.00;;;;;;5012173;28;20455;-68
2022/06/20 07:24:05;;;;;;;7.50;4.33;;;24.50;98.00;;;;;;5012084;28;20490;-68
2022/06/20 07:26:40;;;;;;;4.97;3.30;;;24.90;98.00;;;;;;5012590;28;20463;-67
2022/06/20 07:29:15;;;;;;;5.10;3.70;;;25.00;98.00;;;;;;5012386;28;20507;-68
2022/06/20 07:31:50;;;;;;;10.50;4.97;;;25.20;98.00;;;;;;5012687;28;20475;-66
2022/06/20 07:34:22;;;;;;;8.63;4.37;;;24.90;98.00;;;;;;5012291;28;20977;-66
2022/06/20 07:36:53;;;;;;;6.27;3.47;;;24.60;98.00;;;;;;5012333;28;20834;-67
2022/06/20 07:39:26;;;;;;;9.70;4.80;;;24.80;98.00;;;;;;5012136;28;20471;-66
2022/06/20 07:41:58;;;;;;;5.63;4.07;;;24.90;98.00;;;;;;4995081;28;20459;-66
2022/06/20 07:44:31;;;;;;;8.23;4.60;;;25.10;98.00;;;;;;5011908;28;21001;-67
2022/06/20 07:47:03;;;;;;;8.30;4.17;;;25.10;98.00;;;;;;5011853;28;20470;-68
2022/06/20 07:49:36;;;;;;;6.83;3.90;;;25.20;98.00;;;;;;5011947;28;20455;-67
2022/06/20 07:52:21;;;;;;;12.10;4.10;;;25.10;98.00;;;;;;5012136;28;20463;-67
2022/06/20 07:54:52;;;;;;;8.13;4.93;;;25.20;98.00;;;;;;5012116;28;20835;-65
2022/06/20 07:57:22;;;;;;;8.40;4.70;;;25.20;98.00;;;;;;5011760;28;20472;-66
2022/06/20 08:00:07;;;;;;;9.10;4.70;;;25.00;98.00;;;;;;5011948;28;20466;-67
2022/06/20 08:02:37;;;;;;;10.27;4.80;;;24.60;98.00;;;;;;4994055;28;20451;-65
2022/06/20 08:05:07;;;;;;;8.70;5.10;;;24.50;98.00;;;;;;5011954;28;20471;-67
2022/06/20 08:07:40;;;;;;;4.57;3.10;;;24.60;98.00;;;;;;5012174;28;20459;-66
2022/06/20 08:10:13;;;;;;;6.33;4.07;;;24.70;98.00;;;;;;5011622;28;20521;-68
2022/06/20 08:12:46;;;;;;;6.23;4.00;;;24.90;98.00;;;;;;5011794;28;20459;-67
2022/06/20 08:15:19;;;;;;;6.80;4.00;;;25.00;98.00;;;;;;5011842;28;20486;-65
2022/06/20 08:17:46;;;;;;;8.53;3.50;;;25.00;98.00;;;;;;5011571;28;20455;-64
2022/06/20 08:20:15;;;;;;;6.30;3.77;;;25.10;98.00;;;;;;4994150;28;20985;-67
2022/06/20 08:22:49;;;;;;;4.90;3.07;;;25.20;98.00;;;;;;5011476;28;20447;-68
2022/06/20 08:25:22;;;;;;;7.17;4.00;;;25.20;98.00;;;;;;5011536;28;20526;-68
2022/06/20 08:27:53;;;;;;;4.47;3.37;;;25.30;98.00;;;;;;5011952;28;20816;-70
2022/06/20 08:30:34;;;;;;;4.63;3.33;;;25.30;98.00;;;;;;5010462;28;20873;-71
2022/06/20 08:33:07;;;;;;;6.67;3.90;;;25.40;98.00;;;;;;5016318;28;20851;-68
2022/06/20 08:35:42;;;;;;;6.80;3.80;;;25.40;98.00;;;;;;5018203;28;20459;-67
2022/06/20 08:38:16;;;;;;;7.13;3.33;;;25.50;98.00;;;;;;5017857;28;20678;-68
2022/06/20 08:41:15;;;;;;;5.50;3.53;;;25.70;98.00;;;;;;5018188;28;20455;-70
2022/06/20 08:44:16;;;;;;;6.17;3.10;;;25.60;98.00;;;;;;4992543;28;20753;-69
2022/06/20 08:47:12;;;;;;;4.20;3.13;;;25.40;98.00;;;;;;5013354;28;20976;-68
2022/06/20 08:50:19;;;;;;;5.43;3.33;;;25.60;98.00;;;;;;5017124;28;20471;-70
2022/06/20 08:53:22;;;;;;;5.63;3.40;;;25.70;98.00;;;;;;5009678;28;20872;-68
2022/06/20 08:56:23;;;;;;;5.47;3.40;;;25.80;98.00;;;;;;5017683;28;20489;-68
2022/06/20 08:59:00;;;;;;;5.17;3.30;;;25.80;98.00;;;;;;5017532;28;20916;-68
2022/06/20 09:01:42;;;;;;;8.37;4.00;;;25.80;98.00;;;;;;5017835;28;20475;-68
2022/06/20 09:04:35;;;;;;;7.30;4.40;;;25.90;98.00;;;;;;5017254;28;20479;-69
2022/06/20 09:07:33;;;;;;;6.13;3.93;;;26.00;98.00;;;;;;5017639;28;20693;-69
2022/06/20 09:10:30;;;;;;;11.17;3.67;;;26.20;98.00;;;;;;4996363;28;20459;-68
2022/06/20 09:13:23;;;;;;;4.80;3.73;;;26.30;98.00;;;;;;5017888;28;20456;-69
2022/06/20 09:16:02;;;;;;;4.60;3.40;;;26.50;98.00;;;;;;5018439;28;20969;-70
2022/06/20 09:18:44;;;;;;;5.87;3.53;;;26.50;98.00;;;;;;5018427;28;20513;-69
2022/06/20 09:21:20;;;;;;;7.77;3.80;;;26.70;98.00;;;;;;5018781;28;20525;-71
2022/06/20 09:24:06;;;;;;;7.97;3.83;;;26.60;98.00;;;;;;5018324;28;20482;-71
2022/06/20 09:26:41;;;;;;;5.80;3.50;;;26.70;98.00;;;;;;5018919;28;20466;-72
2022/06/20 09:29:23;;;;;;;9.77;4.40;;;26.80;98.00;;;;;;5018112;28;20458;-72
2022/06/20 09:32:38;;;;;;;5.40;3.20;;;27.00;98.00;;;;;;5018356;28;20510;-72
2022/06/20 09:35:35;;;;;;;4.73;3.00;;;27.00;97.00;;;;;;5018163;28;20958;-69
2022/06/20 09:38:29;;;;;;;6.00;3.67;;;27.00;96.70;;;;;;5002441;28;20473;-69
2022/06/20 09:41:01;;;;;;;7.47;3.83;;;27.00;96.00;;;;;;5010715;28;20471;-69
2022/06/20 09:43:40;;;;;;;5.53;3.33;;;27.30;98.00;;;;;;5016409;28;20483;-70
2022/06/20 09:46:16;;;;;;;5.73;3.40;;;27.40;96.80;;;;;;5014253;28;20466;-70
2022/06/20 09:48:51;;;;;;;9.97;3.67;;;27.50;94.20;;;;;;5014379;28;20466;-70
2022/06/20 09:51:27;;;;;;;5.83;3.60;;;27.40;95.80;;;;;;5014203;28;20466;-68
2022/06/20 09:54:03;;;;;;;7.77;3.50;;;27.40;95.60;;;;;;5014102;28;20455;-69
2022/06/20 09:56:37;;;;;;;7.10;4.33;;;27.70;95.50;;;;;;5014239;28;20477;-69
2022/06/20 09:59:14;;;;;;;8.33;3.80;;;27.90;94.70;;;;;;5013898;28;20451;-70
2022/06/20 10:01:47;;;;;;;5.80;3.00;;;28.00;94.50;;;;;;5014031;28;20509;-70
2022/06/20 10:04:25;;;;;;;7.03;3.10;;;28.10;93.10;;;;;;5013868;28;21127;-69
2022/06/20 10:07:00;;;;;;;4.90;3.57;;;28.10;93.10;;;;;;5014106;28;20792;-70
2022/06/20 10:09:38;;;;;;;8.70;3.70;;;28.10;91.90;;;;;;5013797;28;20461;-70
2022/06/20 10:12:13;;;;;;;5.27;3.50;;;28.10;93.20;;;;;;5013975;28;20473;-70
2022/06/20 10:14:52;;;;;;;5.80;3.67;;;28.30;92.80;;;;;;5013696;28;20543;-65
2022/06/20 10:17:27;;;;;;;6.10;3.53;;;28.40;91.00;;;;;;5013783;28;20456;-67
2022/06/20 10:20:05;;;;;;;4.93;3.00;;;28.40;91.60;;;;;;4996287;28;20459;-67
2022/06/20 10:22:39;;;;;;;5.27;4.00;;;28.60;93.40;;;;;;5013700;28;20455;-67
2022/06/20 10:25:32;;;;;;;5.53;3.20;;;28.60;89.70;;;;;;5013541;28;20491;-66
2022/06/20 10:28:08;;;;;;;8.53;4.07;;;28.70;91.70;;;;;;5013555;28;20467;-66
2022/06/20 10:30:46;;;;;;;6.10;3.50;;;29.00;91.90;;;;;;5013772;28;20455;-66
2022/06/20 10:33:33;;;;;;;7.13;3.70;;;29.10;90.00;;;;;;5013355;28;20470;-68
2022/06/20 10:36:14;;;;;;;5.83;3.60;;;29.40;88.80;;;;;;4997148;28;20459;-68
2022/06/20 10:38:50;;;;;;;5.90;3.70;;;29.20;87.30;;;;;;5013316;28;20474;-66
2022/06/20 10:41:26;;;;;;;6.37;3.83;;;29.20;88.00;;;;;;4997924;28;20883;-68
2022/06/20 10:44:03;;;;;;;7.50;3.70;;;29.50;88.10;;;;;;5013013;28;20549;-67
2022/06/20 10:46:40;;;;;;;7.07;3.53;;;29.90;88.90;;;;;;5013310;28;20467;-67
2022/06/20 10:49:30;;;;;;;7.20;3.60;;;29.90;86.80;;;;;;5012836;28;20462;-68
2022/06/20 10:52:18;;;;;;;5.03;3.90;;;29.50;87.10;;;;;;5013017;28;20455;-67
2022/06/20 10:54:59;;;;;;;6.53;4.10;;;29.10;88.80;;;;;;4999725;28;20486;-69
2022/06/20 10:57:41;;;;;;;5.20;3.40;;;28.70;89.10;;;;;;5013275;28;20502;-67
2022/06/20 11:00:11;;;;;;;7.40;3.67;;;28.60;89.60;;;;;;5012883;28;20463;-67
2022/06/20 11:03:03;;;;;;;3.67;2.97;;;28.90;92.00;;;;;;5013151;28;20615;-69
2022/06/20 11:05:38;;;;;;;5.03;3.10;;;29.10;89.20;;;;;;5011481;28;20484;-67
2022/06/20 11:08:23;;;;;;;4.60;3.10;;;29.20;89.30;;;;;;5012757;28;20961;-67
2022/06/20 11:11:02;;;;;;;3.80;3.13;;;29.00;87.30;;;;;;5012771;28;20542;-70
2022/06/20 11:13:36;;;;;;;11.03;3.00;;;28.70;87.50;;;;;;5012698;28;20455;-70
2022/06/20 11:16:15;;;;;;;4.90;3.37;;;28.70;89.20;;;;;;5012650;28;20486;-68
2022/06/20 11:18:58;;;;;;;4.63;3.40;;;29.00;87.70;;;;;;5012749;28;20455;-69
2022/06/20 11:21:36;;;;;;;6.07;3.10;;;29.40;87.30;;;;;;5012720;28;20716;-69
2022/06/20 11:24:16;;;;;;;4.50;3.20;;;29.40;84.20;;;;;;4995967;28;20487;-68
2022/06/20 11:26:53;;;;;;;4.93;3.13;;;29.20;85.70;;;;;;5012775;28;20829;-68
2022/06/20 11:29:48;;;;;;;4.10;2.80;;;29.10;87.10;;;;;;5012864;28;20543;-67
2022/06/20 11:32:23;;;;;;;4.00;2.90;;;29.20;86.20;;;;;;4997833;28;20456;-66
2022/06/20 11:35:30;;;;;;;5.10;3.03;;;29.10;87.10;;;;;;5012392;28;20832;-68
2022/06/20 11:38:18;;;;;;;4.33;2.90;;;29.00;88.70;;;;;;5012317;28;20554;-66
2022/06/20 11:40:57;;;;;;;3.50;2.60;;;28.90;84.70;;;;;;5012330;28;20451;-68
2022/06/20 11:44:07;;;;;;;5.27;3.03;;;29.10;85.10;;;;;;5012120;28;20459;-69
2022/06/20 11:46:51;;;;;;;5.23;3.13;;;29.00;85.20;;;;;;5012168;28;20558;-67
2022/06/20 11:49:36;;;;;;;4.07;2.83;;;29.00;86.90;;;;;;5011915;28;20456;-67
2022/06/20 11:52:11;;;;;;;5.93;3.60;;;28.80;87.60;;;;;;5011917;28;20467;-70
2022/06/20 11:54:49;;;;;;;6.93;3.80;;;28.70;87.90;;;;;;5012021;28;20774;-68
2022/06/20 11:57:23;;;;;;;5.93;3.10;;;28.40;88.70;;;;;;5012143;28;20471;-66
2022/06/20 11:59:59;;;;;;;3.37;2.80;;;28.40;88.90;;;;;;4995028;28;20458;-70
2022/06/20 12:02:40;;;;;;;5.10;3.43;;;28.30;88.90;;;;;;5011834;28;20755;-70
2022/06/20 12:05:36;;;;;;;5.53;3.40;;;28.50;89.00;;;;;;5011581;28;20482;-67
2022/06/20 12:08:15;;;;;;;3.90;2.87;;;28.60;88.90;;;;;;5011059;28;20455;-68
2022/06/20 12:10:49;;;;;;;4.80;3.20;;;28.50;88.50;;;;;;5012052;28;20462;-68
2022/06/20 12:13:32;;;;;;;5.03;3.43;;;28.40;87.20;;;;;;5011553;28;20456;-67
2022/06/20 12:16:08;;;;;;;4.60;2.67;;;28.20;87.50;;;;;;5011907;28;20459;-68
2022/06/20 12:24:35;;;;;;;3.80;2.87;;;27.40;90.20;;;;;;5011738;28;20486;-65
2022/06/20 12:27:02;;;;;;;3.70;2.57;;;27.30;90.50;;;;;;5011606;28;20464;-66
2022/06/20 12:29:34;;;;;;;3.93;2.70;;;27.10;91.10;;;;;;5011700;28;20463;-65
2022/06/20 12:32:05;;;;;;;4.57;2.70;;;27.30;91.30;;;;;;5011628;28;20466;-63
2022/06/20 12:34:45;;;;;;;3.30;2.40;;;27.20;90.10;;;;;;5011650;28;20938;-63
2022/06/20 12:37:18;;;;;;;4.93;3.20;;;27.20;89.50;;;;;;5011467;28;20978;-63
2022/06/20 12:39:52;;;;;;;4.97;3.20;;;27.10;91.20;;;;;;5011426;28;20463;-63
2022/06/20 12:42:31;;;;;;;5.93;3.53;;;27.10;91.30;;;;;;5011391;28;20538;-69
2022/06/20 12:45:09;;;;;;;5.00;2.87;;;27.00;92.90;;;;;;4993835;28;20484;-69
2022/06/20 12:48:05;;;;;;;4.37;2.70;;;27.10;93.00;;;;;;5011685;28;20469;-68
2022/06/20 12:50:40;;;;;;;9.53;3.40;;;27.20;92.50;;;;;;5010074;28;20470;-67
2022/06/20 12:53:22;;;;;;;4.00;3.03;;;27.20;91.60;;;;;;5011915;28;20463;-67
2022/06/20 12:56:05;;;;;;;6.97;3.07;;;27.10;91.30;;;;;;5011278;28;20945;-71
2022/06/20 12:58:48;;;;;;;4.37;2.90;;;27.10;91.90;;;;;;5011601;28;20478;-68
2022/06/20 13:01:21;;;;;;;4.23;3.03;;;27.10;92.20;;;;;;5011284;28;20467;-69
2022/06/20 13:04:18;;;;;;;4.47;3.00;;;27.30;92.30;;;;;;5011515;28;20490;-69
2022/06/20 13:07:10;;;;;;;5.40;3.20;;;27.60;91.30;;;;;;5011215;28;20480;-71
2022/06/20 13:10:08;;;;;;;4.30;2.80;;;27.60;91.20;;;;;;4993453;28;20462;-70
2022/06/20 13:12:56;;;;;;;5.17;3.27;;;27.70;92.30;;;;;;4995195;28;20459;-70
2022/06/20 13:15:39;;;;;;;7.10;3.10;;;28.30;90.90;;;;;;4994457;28;20969;-72
2022/06/20 13:18:44;;;;;;;4.07;3.03;;;28.50;89.70;;;;;;5011449;28;20817;-70
2022/06/20 13:21:17;;;;;;;3.83;2.70;;;28.50;89.10;;;;;;4953951;29;20841;-68
2022/06/20 13:24:08;;;;;;;3.37;2.73;;;28.40;89.70;;;;;;5006606;28;20459;-69
2022/06/20 13:26:45;;;;;;;5.63;3.03;;;28.30;90.40;;;;;;5014685;28;20466;-70
2022/06/20 13:29:29;;;;;;;3.73;2.93;;;28.20;89.80;;;;;;5014778;28;20463;-70
2022/06/20 13:32:02;;;;;;;3.93;2.40;;;28.20;90.60;;;;;;5014944;28;20455;-68
2022/06/20 13:34:44;;;;;;;10.17;3.20;;;28.30;89.40;;;;;;5014414;28;20478;-71
2022/06/20 13:37:25;;;;;;;4.40;2.87;;;28.00;89.50;;;;;;5014418;28;21023;-68
2022/06/20 13:39:58;;;;;;;3.90;2.60;;;27.90;90.60;;;;;;5014452;28;20876;-68
2022/06/20 13:42:30;;;;;;;4.77;2.70;;;27.80;91.30;;;;;;5014445;28;20529;-70
2022/06/20 13:45:08;;;;;;;5.17;2.80;;;27.70;90.60;;;;;;5014082;28;20479;-69